Time;durP1;ratioP1;P1;durP2;ratioP2;P2;SDS_P1;SDS_P2;PMS_P1;PMS_P2;Temp;Humidity;BMP_temperature;BMP_pressure;BME280_temperature;BME280_humidity;BME280_pressure;Samples;Min_cycle;Max_cycle;Signal;HPM_P1;HPM_P2
2023/09/07 00:01:30;;;;;;;6.28;3.55;;;22.20;99.90;;;;;;5086949;28;20041;-69
2023/09/07 00:03:56;;;;;;;8.40;3.75;;;22.10;99.90;;;;;;5054069;28;20061;-69
2023/09/07 00:06:22;;;;;;;6.63;3.60;;;22.10;99.90;;;;;;5055547;28;20041;-69
2023/09/07 00:08:47;;;;;;;7.18;3.90;;;22.10;99.90;;;;;;5037332;28;20068;-69
2023/09/07 00:11:13;;;;;;;9.13;3.55;;;22.10;99.90;;;;;;5087718;28;20044;-69
2023/09/07 00:13:39;;;;;;;7.47;3.78;;;22.10;99.90;;;;;;5054945;28;20410;-71
2023/09/07 00:16:05;;;;;;;5.30;3.83;;;22.00;99.90;;;;;;5054304;28;20128;-70
2023/09/07 00:18:32;;;;;;;8.07;3.90;;;22.00;99.90;;;;;;5054171;28;20509;-69
2023/09/07 00:20:59;;;;;;;6.65;3.78;;;22.00;99.90;;;;;;5054738;28;20040;-69
2023/09/07 00:23:25;;;;;;;7.65;3.80;;;22.00;99.90;;;;;;5055208;28;20059;-68
2023/09/07 00:25:51;;;;;;;6.65;3.88;;;21.90;99.90;;;;;;5053521;28;20045;-68
2023/09/07 00:28:16;;;;;;;7.80;3.80;;;22.00;99.90;;;;;;5054009;28;20391;-69
2023/09/07 00:30:42;;;;;;;6.10;3.67;;;21.90;99.90;;;;;;5070252;28;20056;-70
2023/09/07 00:33:08;;;;;;;8.00;3.80;;;21.90;99.90;;;;;;5055354;28;20044;-69
2023/09/07 00:35:34;;;;;;;5.55;3.83;;;21.90;99.90;;;;;;5053869;28;20363;-69
2023/09/07 00:38:00;;;;;;;7.45;4.40;;;21.80;99.90;;;;;;5053582;28;20044;-69
2023/09/07 00:40:26;;;;;;;5.82;3.63;;;21.80;99.90;;;;;;5054499;28;20504;-69
2023/09/07 00:42:53;;;;;;;6.32;4.03;;;21.70;99.90;;;;;;5054051;28;20048;-69
2023/09/07 00:45:18;;;;;;;7.35;3.80;;;21.70;99.90;;;;;;5040867;28;20125;-70
2023/09/07 00:47:45;;;;;;;7.72;3.80;;;21.70;99.90;;;;;;5054562;28;20486;-70
2023/09/07 00:50:14;;;;;;;6.32;3.83;;;21.60;99.90;;;;;;5050655;28;20095;-70
2023/09/07 00:52:42;;;;;;;7.30;4.18;;;21.50;99.90;;;;;;5044448;28;20371;-70
2023/09/07 00:55:09;;;;;;;8.60;3.80;;;21.50;99.90;;;;;;5086332;28;20048;-70
2023/09/07 00:57:36;;;;;;;5.68;3.72;;;21.50;99.90;;;;;;5053471;28;20048;-68
2023/09/07 01:00:07;;;;;;;6.53;3.50;;;21.40;99.90;;;;;;5052837;28;20077;-69
2023/09/07 01:02:33;;;;;;;4.93;3.42;;;21.40;99.90;;;;;;5085080;28;20052;-69
2023/09/07 01:04:59;;;;;;;6.68;4.00;;;21.40;99.90;;;;;;5052736;28;20044;-68
2023/09/07 01:07:31;;;;;;;7.55;4.05;;;21.30;99.90;;;;;;5053275;28;20474;-69
2023/09/07 01:10:00;;;;;;;6.55;3.95;;;21.30;99.90;;;;;;5054149;28;20435;-70
2023/09/07 01:12:26;;;;;;;8.50;4.32;;;21.20;99.90;;;;;;5051839;28;20053;-69
2023/09/07 01:14:52;;;;;;;7.07;3.90;;;21.20;99.90;;;;;;5019665;28;20053;-69
2023/09/07 01:17:21;;;;;;;5.40;3.90;;;21.10;99.90;;;;;;5086181;28;20122;-70
2023/09/07 01:19:49;;;;;;;5.30;4.03;;;21.10;99.90;;;;;;5053606;28;20107;-73
2023/09/07 01:22:20;;;;;;;7.68;4.32;;;21.10;99.90;;;;;;5036352;28;20044;-68
2023/09/07 01:24:47;;;;;;;9.30;4.40;;;21.10;99.90;;;;;;5086353;28;20111;-69
2023/09/07 01:27:13;;;;;;;6.57;4.35;;;21.00;99.90;;;;;;5052602;28;20115;-69
2023/09/07 01:29:40;;;;;;;8.75;3.75;;;21.00;99.90;;;;;;5053907;28;20067;-69
2023/09/07 01:32:06;;;;;;;8.13;4.15;;;21.00;99.90;;;;;;5053485;28;20122;-70
2023/09/07 01:34:32;;;;;;;9.00;4.63;;;21.00;99.90;;;;;;5052943;28;20171;-68
2023/09/07 01:36:58;;;;;;;5.90;4.05;;;20.90;99.90;;;;;;5053317;28;20119;-68
2023/09/07 01:39:24;;;;;;;4.80;4.05;;;20.90;99.90;;;;;;5036346;28;20558;-69
2023/09/07 01:41:49;;;;;;;7.30;4.32;;;20.90;99.90;;;;;;5068653;28;20092;-73
2023/09/07 01:44:15;;;;;;;5.72;4.28;;;20.80;99.90;;;;;;5053695;28;20464;-68
2023/09/07 01:46:41;;;;;;;7.35;3.95;;;20.80;99.90;;;;;;5053755;28;20053;-69
2023/09/07 01:49:07;;;;;;;6.82;4.20;;;20.80;99.90;;;;;;5052042;28;20044;-69
2023/09/07 01:51:33;;;;;;;7.35;3.95;;;20.70;99.90;;;;;;5052501;28;20133;-69
2023/09/07 01:53:59;;;;;;;6.65;4.60;;;20.70;99.90;;;;;;5052275;28;20135;-69
2023/09/07 01:56:24;;;;;;;6.07;4.22;;;20.60;99.90;;;;;;5052290;28;20506;-69
2023/09/07 01:58:50;;;;;;;7.40;4.30;;;20.60;99.90;;;;;;5052266;28;20093;-69
2023/09/07 02:01:25;;;;;;;10.00;4.78;;;20.50;99.90;;;;;;5051737;28;20063;-69
2023/09/07 02:03:52;;;;;;;6.43;4.63;;;20.50;99.90;;;;;;5052003;28;20495;-69
2023/09/07 02:06:18;;;;;;;6.22;4.65;;;20.50;99.90;;;;;;5053268;28;20052;-68
2023/09/07 02:08:44;;;;;;;8.13;4.20;;;20.50;99.90;;;;;;5035708;28;20057;-68
2023/09/07 02:11:09;;;;;;;7.63;4.75;;;20.40;99.90;;;;;;5051469;28;20455;-69
2023/09/07 02:13:35;;;;;;;5.25;4.03;;;20.40;99.90;;;;;;5051906;28;20076;-69
2023/09/07 02:16:05;;;;;;;6.60;4.13;;;20.30;99.90;;;;;;5018558;28;20127;-69
2023/09/07 02:18:33;;;;;;;13.75;4.80;;;20.20;99.90;;;;;;5053132;28;20049;-70
2023/09/07 02:21:04;;;;;;;8.05;4.60;;;20.10;99.90;;;;;;5038627;28;20053;-69
2023/09/07 02:23:33;;;;;;;5.30;4.18;;;20.10;99.90;;;;;;5052762;28;20394;-69
2023/09/07 02:25:59;;;;;;;9.18;4.97;;;20.00;99.90;;;;;;5051523;28;20139;-70
2023/09/07 02:28:26;;;;;;;5.68;4.40;;;20.00;99.90;;;;;;5051592;28;20053;-69
2023/09/07 02:30:52;;;;;;;7.10;4.30;;;19.90;99.90;;;;;;5051917;28;20049;-69
2023/09/07 02:33:18;;;;;;;4.85;4.20;;;19.90;99.90;;;;;;5051238;28;20443;-69
2023/09/07 02:35:44;;;;;;;6.75;4.65;;;19.80;99.90;;;;;;5051937;28;20080;-69
2023/09/07 02:38:09;;;;;;;7.93;4.57;;;19.80;99.90;;;;;;5052252;28;20120;-69
2023/09/07 02:40:42;;;;;;;5.72;4.82;;;19.80;99.90;;;;;;5052665;28;20436;-69
2023/09/07 02:43:08;;;;;;;7.68;4.88;;;19.70;99.90;;;;;;5050871;28;20443;-69
2023/09/07 02:45:34;;;;;;;9.13;4.60;;;19.70;99.90;;;;;;5052635;28;20056;-68
2023/09/07 02:48:00;;;;;;;8.75;4.70;;;19.70;99.90;;;;;;5051213;28;20076;-70
2023/09/07 02:50:26;;;;;;;7.05;5.18;;;19.70;99.90;;;;;;5052439;28;20068;-70
2023/09/07 02:52:52;;;;;;;7.97;4.65;;;19.70;99.90;;;;;;5052566;28;20088;-69
2023/09/07 02:55:17;;;;;;;7.05;4.50;;;19.70;99.90;;;;;;5034287;28;20056;-69
2023/09/07 02:57:43;;;;;;;8.23;5.18;;;19.70;99.90;;;;;;5051351;28;20036;-69
2023/09/07 03:00:10;;;;;;;7.82;4.80;;;19.60;99.90;;;;;;5051763;28;20037;-69
2023/09/07 03:02:37;;;;;;;8.73;5.10;;;19.60;99.90;;;;;;5052478;28;20053;-69
2023/09/07 03:05:06;;;;;;;8.00;5.07;;;19.50;99.90;;;;;;5050891;28;20505;-69
2023/09/07 03:07:33;;;;;;;9.18;5.30;;;19.50;99.90;;;;;;5052165;28;20041;-70
2023/09/07 03:09:59;;;;;;;7.82;5.18;;;19.50;99.90;;;;;;5051169;28;20076;-69
2023/09/07 03:12:25;;;;;;;7.70;5.55;;;19.50;99.90;;;;;;5051806;28;20406;-68
2023/09/07 03:14:51;;;;;;;8.60;5.32;;;19.40;99.90;;;;;;5051973;28;20049;-68
2023/09/07 03:17:17;;;;;;;8.18;5.38;;;19.40;99.90;;;;;;5050607;28;20037;-68
2023/09/07 03:19:43;;;;;;;9.00;5.10;;;19.40;99.90;;;;;;5051665;28;20510;-68
2023/09/07 03:22:09;;;;;;;7.65;5.55;;;19.30;99.90;;;;;;5034315;28;20055;-70
2023/09/07 03:24:35;;;;;;;8.65;4.95;;;19.30;99.90;;;;;;5034155;28;20502;-69
2023/09/07 03:27:01;;;;;;;8.85;5.72;;;19.20;99.90;;;;;;5052050;28;20128;-69
2023/09/07 03:29:27;;;;;;;8.23;5.70;;;19.20;99.90;;;;;;5050634;28;20116;-69
2023/09/07 03:31:52;;;;;;;7.97;5.45;;;19.10;99.90;;;;;;5052085;28;20102;-68
2023/09/07 03:34:19;;;;;;;7.20;5.43;;;19.10;99.90;;;;;;5050416;28;20118;-69
2023/09/07 03:36:45;;;;;;;8.45;4.97;;;19.00;99.90;;;;;;5055763;28;20049;-69
2023/09/07 03:39:11;;;;;;;7.65;5.65;;;19.00;99.90;;;;;;5054319;28;20405;-68
2023/09/07 03:41:36;;;;;;;9.30;6.18;;;19.10;99.90;;;;;;5055830;28;20041;-69
2023/09/07 03:44:02;;;;;;;7.93;5.63;;;19.00;99.90;;;;;;5056143;28;20111;-69
2023/09/07 03:46:28;;;;;;;7.72;5.72;;;19.00;99.90;;;;;;5055399;28;20456;-71
2023/09/07 03:48:54;;;;;;;7.68;5.97;;;19.00;99.90;;;;;;5054856;28;20491;-69
2023/09/07 03:51:19;;;;;;;8.98;5.95;;;19.00;99.90;;;;;;5054563;28;20074;-69
2023/09/07 03:53:45;;;;;;;9.73;5.53;;;19.00;99.90;;;;;;5038123;28;20049;-70
2023/09/07 03:56:11;;;;;;;7.55;5.43;;;18.90;99.90;;;;;;5055377;28;20045;-70
2023/09/07 03:58:37;;;;;;;9.23;5.65;;;18.80;99.90;;;;;;5037852;28;20037;-70
2023/09/07 04:01:02;;;;;;;8.10;6.25;;;18.80;99.90;;;;;;5054353;28;20392;-69
2023/09/07 04:03:28;;;;;;;8.85;6.25;;;18.80;99.90;;;;;;5055264;28;20080;-73
2023/09/07 04:05:54;;;;;;;7.55;5.70;;;18.80;99.90;;;;;;5054393;28;20521;-69
2023/09/07 04:08:20;;;;;;;9.88;7.10;;;18.70;99.90;;;;;;5055201;28;20052;-68
2023/09/07 04:10:45;;;;;;;10.23;6.65;;;18.70;99.90;;;;;;5054004;28;20102;-69
2023/09/07 04:13:11;;;;;;;6.38;5.75;;;18.70;99.90;;;;;;5055080;28;20043;-69
2023/09/07 04:15:44;;;;;;;8.90;6.45;;;18.70;99.90;;;;;;5055418;28;20358;-69
2023/09/07 04:18:18;;;;;;;7.85;6.15;;;18.70;99.90;;;;;;5037143;28;20049;-73
2023/09/07 04:20:44;;;;;;;8.13;6.32;;;18.70;99.90;;;;;;5054194;28;20124;-70
2023/09/07 04:23:09;;;;;;;10.55;6.80;;;18.70;99.90;;;;;;5054902;28;20076;-69
2023/09/07 04:25:35;;;;;;;8.63;6.25;;;18.60;99.90;;;;;;5053515;28;20045;-68
2023/09/07 04:28:01;;;;;;;9.88;6.88;;;18.60;99.90;;;;;;5055126;28;20056;-69
2023/09/07 04:30:27;;;;;;;8.88;6.25;;;18.60;99.90;;;;;;5054728;28;20527;-68
2023/09/07 04:32:53;;;;;;;9.02;6.70;;;18.60;99.90;;;;;;5037454;28;20056;-70
2023/09/07 04:35:18;;;;;;;8.50;6.60;;;18.60;99.90;;;;;;5054308;28;20041;-69
2023/09/07 04:37:45;;;;;;;9.02;6.50;;;18.60;99.90;;;;;;5053985;28;20048;-69
2023/09/07 04:40:11;;;;;;;8.77;6.45;;;18.60;99.90;;;;;;5053558;28;20098;-69
2023/09/07 04:42:40;;;;;;;8.48;6.43;;;18.50;99.90;;;;;;5054526;28;20102;-69
2023/09/07 04:45:06;;;;;;;8.93;6.35;;;18.60;99.90;;;;;;5053427;28;20052;-68
2023/09/07 04:47:32;;;;;;;9.40;6.90;;;18.50;99.90;;;;;;5053080;28;20041;-70
2023/09/07 04:49:58;;;;;;;10.23;6.80;;;18.50;99.90;;;;;;5054764;28;20120;-69
2023/09/07 04:52:24;;;;;;;7.70;6.90;;;18.40;99.90;;;;;;5054511;28;20163;-69
2023/09/07 04:54:49;;;;;;;8.45;6.45;;;18.50;99.90;;;;;;5053352;28;20045;-69
2023/09/07 04:57:18;;;;;;;8.45;6.95;;;18.40;99.90;;;;;;5053906;28;20122;-71
2023/09/07 04:59:44;;;;;;;10.15;6.93;;;18.40;99.90;;;;;;5054359;28;20045;-69
2023/09/07 05:02:11;;;;;;;8.27;6.55;;;18.40;99.90;;;;;;5036652;28;20056;-68
2023/09/07 05:04:37;;;;;;;8.50;7.05;;;18.40;99.90;;;;;;5036545;28;20427;-68
2023/09/07 05:07:03;;;;;;;9.63;6.75;;;18.40;99.90;;;;;;5052940;28;20051;-69
2023/09/07 05:09:29;;;;;;;11.27;6.80;;;18.40;99.90;;;;;;5052705;28;20115;-69
2023/09/07 05:11:56;;;;;;;7.43;6.72;;;18.40;99.90;;;;;;5054273;28;20084;-69
2023/09/07 05:14:23;;;;;;;8.32;6.90;;;18.40;99.90;;;;;;5053607;28;20041;-69
2023/09/07 05:16:49;;;;;;;7.55;6.68;;;18.40;99.90;;;;;;5054124;28;20125;-68
2023/09/07 05:19:15;;;;;;;12.50;6.95;;;18.40;99.90;;;;;;5053668;28;20045;-72
2023/09/07 05:21:41;;;;;;;8.45;7.03;;;18.30;99.90;;;;;;5052344;28;20402;-70
2023/09/07 05:24:07;;;;;;;10.00;6.93;;;18.40;99.90;;;;;;5052846;28;20080;-69
2023/09/07 05:26:32;;;;;;;9.38;6.53;;;18.30;99.90;;;;;;5081873;28;20042;-69
2023/09/07 05:28:58;;;;;;;9.18;7.60;;;18.30;99.90;;;;;;5043536;28;20045;-68
2023/09/07 05:31:24;;;;;;;10.55;7.85;;;18.30;99.90;;;;;;5053330;28;20090;-68
2023/09/07 05:33:51;;;;;;;12.27;7.78;;;18.30;99.90;;;;;;5053772;28;20106;-68
2023/09/07 05:36:17;;;;;;;11.00;7.20;;;18.30;99.90;;;;;;5036061;28;20041;-70
2023/09/07 05:38:43;;;;;;;8.57;7.05;;;18.60;99.90;;;;;;5053262;28;20470;-69
2023/09/07 05:41:09;;;;;;;8.02;6.55;;;19.30;99.90;;;;;;5052849;28;20056;-69
2023/09/07 05:43:34;;;;;;;8.05;6.47;;;20.10;99.90;;;;;;5051361;28;20048;-70
2023/09/07 05:46:00;;;;;;;18.30;7.07;;;20.80;99.90;;;;;;5053841;28;20142;-69
2023/09/07 05:48:26;;;;;;;8.27;6.13;;;21.50;99.90;;;;;;5053051;28;20066;-69
2023/09/07 05:50:52;;;;;;;8.35;5.95;;;22.20;99.90;;;;;;5053187;28;20072;-70
2023/09/07 05:53:20;;;;;;;9.65;5.90;;;22.70;99.90;;;;;;5053266;28;20055;-69
2023/09/07 05:55:46;;;;;;;8.93;5.68;;;23.20;99.90;;;;;;5052027;28;20085;-70
2023/09/07 05:58:13;;;;;;;9.70;5.82;;;23.10;99.90;;;;;;5052487;28;20537;-68
2023/09/07 06:00:39;;;;;;;10.32;6.32;;;22.80;99.90;;;;;;5052670;28;20033;-69
2023/09/07 06:03:06;;;;;;;9.50;5.80;;;22.70;99.90;;;;;;5052118;28;20048;-70
2023/09/07 06:05:35;;;;;;;7.55;5.72;;;22.80;99.90;;;;;;5085052;28;20044;-69
2023/09/07 06:08:01;;;;;;;9.25;5.65;;;22.80;99.90;;;;;;5052293;28;20049;-69
2023/09/07 06:10:29;;;;;;;10.48;6.18;;;22.50;99.90;;;;;;5085223;28;20056;-69
2023/09/07 06:12:55;;;;;;;10.55;6.18;;;22.20;99.90;;;;;;5052906;28;20049;-69
2023/09/07 06:15:21;;;;;;;9.00;6.30;;;21.90;99.90;;;;;;5052725;28;20037;-70
2023/09/07 06:17:46;;;;;;;9.23;6.13;;;21.60;99.90;;;;;;5051500;28;20132;-70
2023/09/07 06:20:12;;;;;;;9.25;5.85;;;21.50;99.90;;;;;;5052943;28;20475;-70
2023/09/07 06:22:38;;;;;;;9.30;5.82;;;21.40;99.90;;;;;;5052565;28;20053;-69
2023/09/07 06:25:04;;;;;;;9.02;5.65;;;21.40;99.90;;;;;;5051848;28;20052;-70
2023/09/07 06:27:30;;;;;;;8.73;5.90;;;21.60;99.90;;;;;;5051318;28;20052;-70
2023/09/07 06:29:55;;;;;;;9.05;5.53;;;22.20;99.90;;;;;;5051877;28;20141;-70
2023/09/07 06:32:21;;;;;;;9.45;6.05;;;22.60;99.90;;;;;;5035559;28;20041;-70
2023/09/07 06:34:47;;;;;;;8.75;5.95;;;22.50;99.90;;;;;;5052087;28;20435;-69
2023/09/07 06:37:13;;;;;;;6.75;6.05;;;22.30;99.90;;;;;;5034983;28;20506;-70
2023/09/07 06:39:39;;;;;;;11.32;6.15;;;22.20;99.90;;;;;;5051195;28;20041;-70
2023/09/07 06:42:04;;;;;;;10.60;6.07;;;22.00;99.90;;;;;;5034680;28;20049;-69
2023/09/07 06:44:30;;;;;;;11.40;5.70;;;21.90;99.90;;;;;;5051270;28;20067;-70
2023/09/07 06:46:56;;;;;;;8.05;5.72;;;21.80;99.90;;;;;;5052425;28;20045;-70
2023/09/07 06:49:22;;;;;;;9.18;5.88;;;21.70;99.90;;;;;;5051397;28;20053;-70
2023/09/07 06:51:48;;;;;;;7.70;5.80;;;21.90;99.90;;;;;;5051912;28;20059;-70
2023/09/07 06:54:14;;;;;;;8.00;6.03;;;22.00;99.90;;;;;;5034319;28;20048;-70
2023/09/07 06:56:39;;;;;;;9.85;6.40;;;22.00;99.90;;;;;;5051026;28;20092;-68
2023/09/07 06:59:06;;;;;;;13.02;6.45;;;22.00;99.90;;;;;;5052222;28;20072;-69
2023/09/07 07:01:31;;;;;;;10.77;6.18;;;22.00;99.90;;;;;;5050309;28;20514;-69
2023/09/07 07:03:57;;;;;;;8.25;5.78;;;21.90;99.90;;;;;;5051149;28;20075;-69
2023/09/07 07:06:23;;;;;;;7.38;6.10;;;21.90;99.90;;;;;;5034563;28;20414;-69
2023/09/07 07:08:49;;;;;;;11.10;6.13;;;21.90;99.90;;;;;;5033871;28;20052;-69
2023/09/07 07:11:15;;;;;;;13.95;6.40;;;22.00;99.90;;;;;;5050289;28;20418;-69
2023/09/07 07:13:41;;;;;;;11.00;6.35;;;22.20;99.90;;;;;;5051775;28;20445;-70
2023/09/07 07:16:07;;;;;;;8.75;5.00;;;23.00;99.90;;;;;;5051965;28;20045;-69
2023/09/07 07:18:33;;;;;;;10.38;5.25;;;24.00;99.90;;;;;;5050732;28;20037;-69
2023/09/07 07:20:58;;;;;;;12.63;5.28;;;24.80;99.90;;;;;;5050541;28;20067;-70
2023/09/07 07:23:24;;;;;;;10.45;5.50;;;25.20;99.90;;;;;;5051950;28;20056;-70
2023/09/07 07:25:51;;;;;;;6.78;5.45;;;25.40;99.90;;;;;;5051669;28;20048;-70
2023/09/07 07:28:16;;;;;;;9.32;5.38;;;25.50;99.90;;;;;;5050707;28;20083;-70
2023/09/07 07:30:42;;;;;;;6.30;5.25;;;25.30;99.90;;;;;;5051505;28;20041;-70
2023/09/07 07:33:09;;;;;;;8.57;5.30;;;25.00;99.90;;;;;;5050892;28;20053;-70
2023/09/07 07:35:35;;;;;;;9.73;5.53;;;24.80;99.90;;;;;;5051867;28;20049;-73
2023/09/07 07:38:03;;;;;;;7.28;5.38;;;24.60;99.90;;;;;;5051774;28;20052;-70
2023/09/07 07:40:30;;;;;;;7.78;4.13;;;24.50;99.90;;;;;;5051348;28;20487;-70
2023/09/07 07:42:55;;;;;;;7.95;5.53;;;24.40;99.90;;;;;;5051334;28;20919;-68
2023/09/07 07:45:21;;;;;;;7.88;4.90;;;24.60;99.90;;;;;;5034101;28;20120;-69
2023/09/07 07:47:51;;;;;;;8.43;5.25;;;25.00;99.90;;;;;;5066922;28;20060;-69
2023/09/07 07:50:17;;;;;;;8.57;5.00;;;25.90;99.90;;;;;;5050216;28;20432;-69
2023/09/07 07:52:44;;;;;;;10.13;4.90;;;26.60;99.90;;;;;;5083614;28;20098;-70
2023/09/07 07:55:10;;;;;;;9.32;5.05;;;27.40;99.90;;;;;;5033872;28;20402;-68
2023/09/07 07:57:36;;;;;;;7.82;5.20;;;28.00;99.60;;;;;;5050628;28;20049;-69
2023/09/07 08:00:04;;;;;;;8.23;4.38;;;28.50;99.00;;;;;;5051029;28;20052;-69
2023/09/07 08:02:30;;;;;;;8.65;4.70;;;29.00;98.90;;;;;;5050573;28;20116;-69
2023/09/07 08:04:56;;;;;;;10.40;4.55;;;29.80;98.30;;;;;;5049907;28;20060;-69
2023/09/07 08:07:22;;;;;;;6.53;4.95;;;30.50;97.40;;;;;;5051508;28;20052;-69
2023/09/07 08:09:47;;;;;;;7.40;4.40;;;30.80;96.80;;;;;;5050184;28;20402;-69
2023/09/07 08:12:13;;;;;;;9.63;4.65;;;30.90;96.20;;;;;;5051511;28;20049;-70
2023/09/07 08:14:39;;;;;;;5.55;4.55;;;31.30;96.10;;;;;;5051422;28;20041;-69
2023/09/07 08:17:04;;;;;;;7.53;4.80;;;31.80;95.90;;;;;;5050038;28;20180;-70
2023/09/07 08:19:30;;;;;;;7.28;4.82;;;32.30;95.30;;;;;;5067043;28;20040;-70
2023/09/07 08:21:58;;;;;;;6.78;4.78;;;32.50;95.10;;;;;;5035845;28;20513;-69
2023/09/07 08:24:24;;;;;;;6.38;4.63;;;32.70;94.90;;;;;;5055094;28;20049;-69
2023/09/07 08:26:50;;;;;;;10.45;4.60;;;33.00;94.60;;;;;;5053731;28;20090;-69
2023/09/07 08:29:16;;;;;;;8.27;4.75;;;33.50;94.40;;;;;;5054227;28;20460;-69
2023/09/07 08:31:45;;;;;;;6.55;4.88;;;33.50;93.70;;;;;;5054605;28;20063;-73
2023/09/07 08:34:11;;;;;;;6.85;4.80;;;33.70;93.70;;;;;;5037694;28;20080;-69
2023/09/07 08:36:37;;;;;;;7.00;4.70;;;33.80;93.60;;;;;;5070084;28;20096;-71
2023/09/07 08:39:05;;;;;;;6.72;4.38;;;33.80;93.40;;;;;;5054340;28;20045;-69
2023/09/07 08:41:43;;;;;;;5.88;3.97;;;33.90;93.00;;;;;;5037412;28;20498;-69
2023/09/07 08:44:10;;;;;;;5.90;4.53;;;33.80;93.00;;;;;;5070729;28;20056;-70
2023/09/07 08:46:37;;;;;;;7.95;4.43;;;33.90;93.30;;;;;;5037031;28;20457;-69
2023/09/07 08:49:04;;;;;;;7.57;4.07;;;34.00;93.00;;;;;;5036847;28;20080;-69
2023/09/07 08:51:31;;;;;;;9.18;4.18;;;34.20;93.10;;;;;;5054544;28;20049;-69
2023/09/07 08:53:57;;;;;;;6.78;4.03;;;34.30;93.00;;;;;;5054081;28;20045;-69
2023/09/07 08:56:24;;;;;;;8.45;4.43;;;34.60;92.70;;;;;;5053457;28;20495;-68
2023/09/07 08:58:50;;;;;;;7.00;4.30;;;34.70;92.60;;;;;;5052488;28;20049;-69
2023/09/07 09:01:21;;;;;;;7.07;3.75;;;34.80;92.10;;;;;;5069955;28;20074;-69
2023/09/07 09:03:48;;;;;;;7.22;3.92;;;34.90;92.50;;;;;;5053031;28;20494;-73
2023/09/07 09:06:16;;;;;;;7.07;4.07;;;35.10;92.10;;;;;;5052968;28;20175;-69
2023/09/07 09:08:55;;;;;;;7.93;4.10;;;35.20;91.80;;;;;;5054163;28;20041;-69
2023/09/07 09:11:22;;;;;;;12.10;4.68;;;35.20;91.30;;;;;;5053457;28;20040;-69
2023/09/07 09:13:50;;;;;;;8.02;4.25;;;35.00;91.00;;;;;;5052644;28;20045;-70
2023/09/07 09:16:16;;;;;;;6.35;4.07;;;35.00;91.10;;;;;;5069785;28;20041;-69
2023/09/07 09:18:48;;;;;;;6.22;4.15;;;34.80;91.40;;;;;;5053094;28;20108;-69
2023/09/07 09:21:16;;;;;;;9.15;4.18;;;34.60;91.10;;;;;;5052651;28;20045;-69
2023/09/07 09:23:41;;;;;;;12.70;4.88;;;34.70;91.30;;;;;;5054188;28;20052;-70
2023/09/07 09:26:07;;;;;;;9.88;3.97;;;34.30;91.10;;;;;;5053448;28;20114;-69
2023/09/07 09:28:34;;;;;;;8.10;3.75;;;33.40;91.10;;;;;;5052984;28;20044;-69
2023/09/07 09:31:01;;;;;;;6.68;3.97;;;32.80;91.60;;;;;;5052204;28;20071;-69
2023/09/07 09:33:28;;;;;;;6.40;4.05;;;32.20;92.20;;;;;;5052691;28;20041;-69
2023/09/07 09:35:54;;;;;;;7.13;4.07;;;31.80;92.50;;;;;;5052300;28;20417;-70
2023/09/07 09:38:20;;;;;;;10.82;4.30;;;31.30;93.00;;;;;;5052503;28;20204;-69
2023/09/07 09:40:46;;;;;;;7.35;4.15;;;31.20;93.30;;;;;;5053452;28;20052;-68
2023/09/07 09:43:13;;;;;;;7.70;4.20;;;31.00;93.30;;;;;;5051734;28;20061;-69
2023/09/07 09:45:39;;;;;;;11.45;4.68;;;30.80;93.70;;;;;;5052601;28;20049;-70
2023/09/07 09:48:06;;;;;;;7.90;4.07;;;30.70;93.60;;;;;;5053092;28;20079;-69
2023/09/07 09:50:37;;;;;;;6.00;4.25;;;30.50;93.70;;;;;;5052097;28;20036;-70
2023/09/07 09:53:06;;;;;;;8.07;4.20;;;30.40;93.80;;;;;;5052091;28;20052;-70
2023/09/07 09:55:33;;;;;;;7.70;4.50;;;30.20;93.90;;;;;;5035339;28;20509;-69
2023/09/07 09:57:58;;;;;;;7.40;4.13;;;30.10;94.10;;;;;;5085037;28;20048;-69
2023/09/07 10:02:57;;;;;;;8.32;3.95;;;30.10;94.10;;;;;;5052289;28;20124;-68
2023/09/07 10:05:23;;;;;;;5.10;3.72;;;29.90;94.20;;;;;;5053186;28;20044;-69
2023/09/07 10:07:50;;;;;;;9.65;3.88;;;29.80;94.40;;;;;;5035783;28;20398;-69
2023/09/07 10:10:18;;;;;;;8.50;4.32;;;29.90;94.70;;;;;;5052666;28;20100;-69
2023/09/07 10:12:45;;;;;;;9.48;4.40;;;30.00;94.70;;;;;;5052931;28;20048;-68
2023/09/07 10:15:21;;;;;;;6.75;4.63;;;29.90;94.60;;;;;;5035020;28;20049;-69
2023/09/07 10:17:50;;;;;;;6.78;4.05;;;29.80;94.60;;;;;;5052768;28;20471;-70
2023/09/07 10:20:17;;;;;;;6.35;3.95;;;29.80;94.60;;;;;;5035159;28;20049;-68
2023/09/07 10:22:43;;;;;;;5.47;3.60;;;29.70;94.50;;;;;;5051721;28;20386;-69
2023/09/07 10:25:22;;;;;;;6.88;3.67;;;29.70;94.00;;;;;;5051293;28;20045;-70
2023/09/07 10:27:49;;;;;;;8.20;3.70;;;29.70;93.80;;;;;;5035064;28;20116;-69
2023/09/07 10:30:22;;;;;;;9.38;3.75;;;29.60;93.50;;;;;;5085058;28;20429;-68
2023/09/07 10:32:48;;;;;;;;;;;29.50;93.60;;;;;;5052185;28;20049;-69
2023/09/07 10:35:21;;;;;;;8.68;3.90;;;29.60;93.80;;;;;;5052180;28;20067;-69
2023/09/07 10:37:48;;;;;;;6.57;3.40;;;29.70;93.80;;;;;;5052837;28;20051;-69
2023/09/07 10:40:20;;;;;;;5.65;3.72;;;29.70;93.60;;;;;;5034326;28;20450;-69
2023/09/07 10:42:47;;;;;;;8.05;3.85;;;29.70;93.60;;;;;;5085095;28;20418;-69
2023/09/07 10:45:16;;;;;;;10.50;3.70;;;29.70;93.10;;;;;;5051773;28;20049;-69
2023/09/07 10:47:48;;;;;;;6.10;3.60;;;29.70;93.30;;;;;;5052427;28;20045;-70
2023/09/07 10:50:14;;;;;;;7.68;3.67;;;29.60;93.50;;;;;;5034906;28;20053;-68
2023/09/07 10:52:41;;;;;;;7.00;3.55;;;29.60;93.40;;;;;;5052135;28;20120;-70
2023/09/07 10:55:11;;;;;;;7.00;3.60;;;29.50;93.50;;;;;;5051813;28;20388;-69
2023/09/07 10:57:47;;;;;;;6.68;4.20;;;29.50;93.70;;;;;;5051427;28;20036;-69
2023/09/07 11:00:14;;;;;;;5.20;3.38;;;29.50;93.90;;;;;;5034101;28;20055;-69
2023/09/07 11:02:40;;;;;;;7.80;3.38;;;29.60;93.80;;;;;;5050983;28;20041;-68
2023/09/07 11:05:07;;;;;;;6.05;3.92;;;29.70;93.20;;;;;;5051402;28;20474;-70
2023/09/07 11:07:33;;;;;;;8.10;3.47;;;29.70;93.10;;;;;;5050941;28;20390;-69
2023/09/07 11:09:59;;;;;;;7.22;3.78;;;29.70;93.10;;;;;;5076606;28;20499;-68
2023/09/07 11:12:25;;;;;;;6.10;3.85;;;29.70;92.80;;;;;;5044454;28;20057;-68
2023/09/07 11:14:53;;;;;;;7.18;3.55;;;29.70;92.40;;;;;;5051202;28;20044;-69
2023/09/07 11:17:18;;;;;;;6.13;4.10;;;29.50;92.20;;;;;;5050468;28;20072;-69
2023/09/07 11:19:44;;;;;;;5.97;3.70;;;29.60;92.20;;;;;;5083908;28;20071;-69
2023/09/07 11:22:10;;;;;;;6.68;3.30;;;29.60;92.00;;;;;;5034146;28;20128;-69
2023/09/07 11:24:36;;;;;;;7.35;3.55;;;29.50;92.10;;;;;;5084464;28;20111;-69
2023/09/07 11:27:03;;;;;;;6.82;3.47;;;29.50;92.10;;;;;;5051990;28;20049;-69
2023/09/07 11:29:33;;;;;;;5.05;2.80;;;29.50;92.10;;;;;;5050483;28;20481;-72
2023/09/07 11:32:09;;;;;;;9.32;3.50;;;29.50;92.10;;;;;;5051932;28;20049;-69
2023/09/07 11:34:46;;;;;;;9.18;4.10;;;29.50;92.30;;;;;;5051847;28;20490;-70
2023/09/07 11:37:11;;;;;;;7.63;3.78;;;29.60;91.90;;;;;;5050642;28;20106;-69
2023/09/07 11:39:37;;;;;;;6.05;3.85;;;29.60;91.90;;;;;;5034171;28;20546;-69
2023/09/07 11:42:03;;;;;;;6.15;3.65;;;29.60;91.90;;;;;;5033824;28;20053;-68
2023/09/07 11:44:29;;;;;;;6.03;3.33;;;29.60;92.10;;;;;;5050498;28;20482;-68
2023/09/07 11:46:55;;;;;;;6.43;3.40;;;29.70;92.20;;;;;;5051576;28;20052;-68
2023/09/07 11:49:21;;;;;;;9.07;4.10;;;29.70;92.40;;;;;;5050499;28;20056;-69
2023/09/07 11:51:47;;;;;;;6.55;3.30;;;29.80;92.80;;;;;;5050205;28;20056;-68
2023/09/07 11:54:13;;;;;;;5.13;3.25;;;29.90;92.70;;;;;;5033921;28;20052;-69
2023/09/07 11:56:42;;;;;;;4.72;3.45;;;29.90;92.50;;;;;;5052416;28;20041;-68
2023/09/07 11:59:09;;;;;;;6.60;2.70;;;29.90;92.50;;;;;;5038383;28;20063;-69
2023/09/07 12:01:35;;;;;;;7.63;3.97;;;30.00;92.60;;;;;;5037992;28;20060;-69
2023/09/07 12:04:01;;;;;;;7.93;3.50;;;29.90;91.90;;;;;;5055476;28;20051;-69
2023/09/07 12:06:26;;;;;;;7.05;3.20;;;29.90;91.80;;;;;;5054073;28;20052;-69
2023/09/07 12:09:03;;;;;;;10.32;4.13;;;29.90;91.70;;;;;;5054379;28;20041;-69
2023/09/07 12:11:30;;;;;;;8.93;3.58;;;29.80;92.20;;;;;;5073199;28;20045;-69
2023/09/07 12:13:56;;;;;;;5.93;3.90;;;29.80;92.00;;;;;;5054532;28;20056;-68
2023/09/07 12:16:22;;;;;;;4.82;3.72;;;29.90;92.30;;;;;;5055008;28;20041;-69
2023/09/07 12:18:48;;;;;;;6.40;3.80;;;29.90;92.20;;;;;;5055311;28;20490;-69
2023/09/07 12:21:14;;;;;;;6.82;3.50;;;29.90;92.20;;;;;;5053660;28;20041;-69
2023/09/07 12:23:40;;;;;;;5.07;3.40;;;29.90;92.30;;;;;;5037740;28;20055;-69
2023/09/07 12:26:05;;;;;;;4.25;3.22;;;29.90;91.70;;;;;;5055043;28;20131;-69
2023/09/07 12:28:31;;;;;;;7.20;3.70;;;29.80;91.90;;;;;;5054812;28;20043;-69
2023/09/07 12:30:58;;;;;;;5.32;3.20;;;29.70;92.30;;;;;;5054161;28;20049;-69
2023/09/07 12:33:24;;;;;;;5.68;3.60;;;29.70;92.30;;;;;;5054494;28;20045;-69
2023/09/07 12:35:50;;;;;;;7.70;3.40;;;29.80;92.20;;;;;;5053954;28;20390;-69
2023/09/07 12:38:18;;;;;;;6.28;3.72;;;29.90;92.20;;;;;;5054496;28;20041;-70
2023/09/07 12:40:44;;;;;;;5.72;3.60;;;29.90;92.30;;;;;;5054962;28;20044;-70
2023/09/07 12:43:10;;;;;;;8.35;3.90;;;30.00;92.20;;;;;;5054544;28;20512;-70
2023/09/07 12:45:36;;;;;;;6.45;3.58;;;30.00;92.00;;;;;;5053112;28;20045;-69